Whitetop, Virginia
Current Conditions -  °F | °C
As of 2:35 AM on Saturday 29 Nov 2014 (Local Time) from KGEV Reporting Station
Clear Clear  
Wind Chill: 27°   Ceiling: Unl
Heat Index: 27°   Visibility: 10mi
Dew Point: 16°   Wind: 0mph
Humidity: 63%   Direction: NA
Pressure: 30.16"   Gusts: NA
Location:  36.6°N, 81.63°W
Report Text: KGEV 290735Z AUTO 00000KT 10SM CLR M03/M09 A3016 RMK AO2 T10301091
Loading
Personal Weather Stations






























Interactive Weather Map New forecast layout! Learn more

10-Day Weather Forecast

Advertisements
Track Severe Weather on mobile